sensor_id;sensor_type;location;lat;lon;timestamp;pressure;altitude;pressure_sealevel;temperature;humidity
61026;BME280;46911;32.650;-16.902;2023-12-14T00:00:00;102220.16;;;16.59;97.65
61026;BME280;46911;32.650;-16.902;2023-12-14T00:02:03;102239.44;;;16.65;98.33
61026;BME280;46911;32.650;-16.902;2023-12-14T00:04:13;102241.69;;;16.59;98.87
61026;BME280;46911;32.650;-16.902;2023-12-14T00:06:14;102235.34;;;16.60;99.29
61026;BME280;46911;32.650;-16.902;2023-12-14T00:08:15;102241.47;;;16.62;97.53
61026;BME280;46911;32.650;-16.902;2023-12-14T00:10:18;102245.25;;;16.72;95.76
61026;BME280;46911;32.650;-16.902;2023-12-14T00:12:19;102240.84;;;16.71;95.84
61026;BME280;46911;32.650;-16.902;2023-12-14T00:14:25;102232.53;;;16.74;95.64
61026;BME280;46911;32.650;-16.902;2023-12-14T00:16:28;102227.91;;;16.76;94.48
61026;BME280;46911;32.650;-16.902;2023-12-14T00:18:29;102248.16;;;16.82;94.44
61026;BME280;46911;32.650;-16.902;2023-12-14T00:20:33;102231.56;;;16.75;92.65
61026;BME280;46911;32.650;-16.902;2023-12-14T00:22:37;102240.94;;;16.69;93.55
61026;BME280;46911;32.650;-16.902;2023-12-14T00:24:41;102238.34;;;16.55;94.68
61026;BME280;46911;32.650;-16.902;2023-12-14T00:26:42;102240.28;;;16.40;95.85
61026;BME280;46911;32.650;-16.902;2023-12-14T00:28:46;102225.72;;;16.43;94.74
61026;BME280;46911;32.650;-16.902;2023-12-14T00:30:49;102233.38;;;16.49;93.83
61026;BME280;46911;32.650;-16.902;2023-12-14T00:32:53;102230.03;;;16.58;92.89
61026;BME280;46911;32.650;-16.902;2023-12-14T00:34:59;102215.41;;;16.62;92.84
61026;BME280;46911;32.650;-16.902;2023-12-14T00:37:00;102221.31;;;16.67;91.32
61026;BME280;46911;32.650;-16.902;2023-12-14T00:39:00;102227.69;;;16.66;91.38
61026;BME280;46911;32.650;-16.902;2023-12-14T00:41:04;102231.03;;;16.70;92.29
61026;BME280;46911;32.650;-16.902;2023-12-14T00:43:08;102224.00;;;16.67;91.76
61026;BME280;46911;32.650;-16.902;2023-12-14T00:45:11;102219.69;;;16.65;92.13
61026;BME280;46911;32.650;-16.902;2023-12-14T00:47:12;102226.94;;;16.64;92.11
61026;BME280;46911;32.650;-16.902;2023-12-14T00:49:15;102225.44;;;16.60;92.71
61026;BME280;46911;32.650;-16.902;2023-12-14T00:51:20;102215.50;;;16.61;92.61
61026;BME280;46911;32.650;-16.902;2023-12-14T00:53:20;102220.59;;;16.65;91.99
61026;BME280;46911;32.650;-16.902;2023-12-14T00:55:21;102225.66;;;16.57;93.54
61026;BME280;46911;32.650;-16.902;2023-12-14T00:57:22;102213.88;;;16.45;93.84
61026;BME280;46911;32.650;-16.902;2023-12-14T00:59:23;102217.53;;;16.44;94.63
61026;BME280;46911;32.650;-16.902;2023-12-14T01:01:26;102187.72;;;16.34;94.62
61026;BME280;46911;32.650;-16.902;2023-12-14T01:03:27;102196.84;;;16.45;95.07
61026;BME280;46911;32.650;-16.902;2023-12-14T01:05:31;102192.53;;;16.42;95.05
61026;BME280;46911;32.650;-16.902;2023-12-14T01:07:32;102181.56;;;16.58;93.62
61026;BME280;46911;32.650;-16.902;2023-12-14T01:09:33;102190.19;;;16.63;92.66
61026;BME280;46911;32.650;-16.902;2023-12-14T01:11:34;102185.78;;;16.62;92.98
61026;BME280;46911;32.650;-16.902;2023-12-14T01:13:34;102182.09;;;16.63;92.95
61026;BME280;46911;32.650;-16.902;2023-12-14T01:15:35;102193.63;;;16.65;92.03
61026;BME280;46911;32.650;-16.902;2023-12-14T01:17:36;102172.31;;;16.62;90.54
61026;BME280;46911;32.650;-16.902;2023-12-14T01:19:43;102175.31;;;16.57;87.48
61026;BME280;46911;32.650;-16.902;2023-12-14T01:21:44;102185.13;;;16.59;89.45
61026;BME280;46911;32.650;-16.902;2023-12-14T01:23:47;102188.13;;;16.54;89.13
61026;BME280;46911;32.650;-16.902;2023-12-14T01:25:49;102183.06;;;16.49;89.93
61026;BME280;46911;32.650;-16.902;2023-12-14T01:27:50;102171.22;;;16.52;90.15
61026;BME280;46911;32.650;-16.902;2023-12-14T01:29:56;102178.97;;;16.56;90.91
61026;BME280;46911;32.650;-16.902;2023-12-14T01:31:57;102186.19;;;16.56;91.44
61026;BME280;46911;32.650;-16.902;2023-12-14T01:33:58;102183.41;;;16.57;90.88
61026;BME280;46911;32.650;-16.902;2023-12-14T01:35:59;102186.75;;;16.61;91.44
61026;BME280;46911;32.650;-16.902;2023-12-14T01:38:00;102182.97;;;16.51;92.44
61026;BME280;46911;32.650;-16.902;2023-12-14T01:40:04;102179.50;;;16.49;92.86
61026;BME280;46911;32.650;-16.902;2023-12-14T01:42:07;102186.84;;;16.47;92.98
61026;BME280;46911;32.650;-16.902;2023-12-14T01:44:08;102161.66;;;16.48;91.33
61026;BME280;46911;32.650;-16.902;2023-12-14T01:46:11;102174.34;;;16.59;90.04
61026;BME280;46911;32.650;-16.902;2023-12-14T01:48:13;102179.63;;;16.60;88.96
61026;BME280;46911;32.650;-16.902;2023-12-14T01:50:14;102175.84;;;16.63;88.86
61026;BME280;46911;32.650;-16.902;2023-12-14T01:52:18;102173.59;;;16.69;87.79
61026;BME280;46911;32.650;-16.902;2023-12-14T01:54:19;102181.34;;;16.74;85.68
61026;BME280;46911;32.650;-16.902;2023-12-14T01:56:23;102194.28;;;16.82;86.04
61026;BME280;46911;32.650;-16.902;2023-12-14T01:58:24;102155.03;;;16.65;86.78
61026;BME280;46911;32.650;-16.902;2023-12-14T02:02:45;102193.09;;;16.60;88.25
61026;BME280;46911;32.650;-16.902;2023-12-14T02:04:46;102190.63;;;16.57;88.18
61026;BME280;46911;32.650;-16.902;2023-12-14T02:06:47;102189.97;;;16.66;88.34
61026;BME280;46911;32.650;-16.902;2023-12-14T02:08:48;102191.19;;;16.62;88.27
61026;BME280;46911;32.650;-16.902;2023-12-14T02:10:55;102203.66;;;16.63;87.76
61026;BME280;46911;32.650;-16.902;2023-12-14T02:12:58;102189.13;;;16.53;88.17
61026;BME280;46911;32.650;-16.902;2023-12-14T02:15:01;102207.41;;;16.61;88.33
61026;BME280;46911;32.650;-16.902;2023-12-14T02:17:04;102185.66;;;16.51;88.95
61026;BME280;46911;32.650;-16.902;2023-12-14T02:19:08;102182.19;;;16.49;89.09
61026;BME280;46911;32.650;-16.902;2023-12-14T02:21:14;102185.66;;;16.51;88.93
61026;BME280;46911;32.650;-16.902;2023-12-14T02:23:15;102181.13;;;16.51;89.06
61026;BME280;46911;32.650;-16.902;2023-12-14T02:25:22;102173.16;;;16.50;88.98
61026;BME280;46911;32.650;-16.902;2023-12-14T02:27:23;102173.91;;;16.39;89.71
61026;BME280;46911;32.650;-16.902;2023-12-14T02:29:31;102182.94;;;16.38;90.18
61026;BME280;46911;32.650;-16.902;2023-12-14T02:31:32;102188.22;;;16.27;90.65
61026;BME280;46911;32.650;-16.902;2023-12-14T02:33:33;102177.47;;;16.27;90.31
61026;BME280;46911;32.650;-16.902;2023-12-14T02:35:37;102182.44;;;16.33;90.25
61026;BME280;46911;32.650;-16.902;2023-12-14T02:37:38;102192.53;;;16.42;89.88
61026;BME280;46911;32.650;-16.902;2023-12-14T02:39:44;102193.84;;;16.49;89.23
61026;BME280;46911;32.650;-16.902;2023-12-14T02:41:50;102212.28;;;16.55;89.49
61026;BME280;46911;32.650;-16.902;2023-12-14T02:43:53;102198.34;;;16.49;89.52
61026;BME280;46911;32.650;-16.902;2023-12-14T02:45:54;102211.19;;;16.45;90.18
61026;BME280;46911;32.650;-16.902;2023-12-14T02:48:04;102200.94;;;16.37;90.68
61026;BME280;46911;32.650;-16.902;2023-12-14T02:50:05;102200.19;;;16.35;91.01
61026;BME280;46911;32.650;-16.902;2023-12-14T02:52:06;102206.97;;;16.28;91.03
61026;BME280;46911;32.650;-16.902;2023-12-14T02:54:07;102197.47;;;16.22;91.50
61026;BME280;46911;32.650;-16.902;2023-12-14T02:56:09;102190.38;;;16.21;91.43
61026;BME280;46911;32.650;-16.902;2023-12-14T02:58:15;102179.25;;;16.13;91.38
61026;BME280;46911;32.650;-16.902;2023-12-14T03:00:16;102201.66;;;16.14;91.54
61026;BME280;46911;32.650;-16.902;2023-12-14T03:02:20;102201.81;;;16.25;90.07
61026;BME280;46911;32.650;-16.902;2023-12-14T03:04:23;102206.41;;;16.23;89.34
61026;BME280;46911;32.650;-16.902;2023-12-14T03:06:24;102195.53;;;16.24;89.33
61026;BME280;46911;32.650;-16.902;2023-12-14T03:08:25;102198.69;;;16.44;87.85
61026;BME280;46911;32.650;-16.902;2023-12-14T03:10:26;102206.97;;;16.54;86.82
61026;BME280;46911;32.650;-16.902;2023-12-14T03:12:27;102204.84;;;16.59;86.27
61026;BME280;46911;32.650;-16.902;2023-12-14T03:14:32;102184.88;;;16.49;86.08
61026;BME280;46911;32.650;-16.902;2023-12-14T03:16:35;102196.53;;;16.49;86.93
61026;BME280;46911;32.650;-16.902;2023-12-14T03:18:36;102196.44;;;16.51;86.35
61026;BME280;46911;32.650;-16.902;2023-12-14T03:20:39;102194.94;;;16.47;86.30
61026;BME280;46911;32.650;-16.902;2023-12-14T03:22:44;102200.41;;;16.45;86.47
61026;BME280;46911;32.650;-16.902;2023-12-14T03:24:50;102194.94;;;16.47;86.21
61026;BME280;46911;32.650;-16.902;2023-12-14T03:26:54;102187.25;;;16.40;85.72
61026;BME280;46911;32.650;-16.902;2023-12-14T03:28:55;102197.84;;;16.44;86.04
61026;BME280;46911;32.650;-16.902;2023-12-14T03:30:56;102195.56;;;16.37;86.24
61026;BME280;46911;32.650;-16.902;2023-12-14T03:32:56;102157.00;;;16.24;85.59
61026;BME280;46911;32.650;-16.902;2023-12-14T03:34:57;102180.19;;;16.39;84.83
61026;BME280;46911;32.650;-16.902;2023-12-14T03:36:58;102169.72;;;16.48;84.10
61026;BME280;46911;32.650;-16.902;2023-12-14T03:38:59;102186.94;;;16.58;83.74
61026;BME280;46911;32.650;-16.902;2023-12-14T03:41:02;102181.03;;;16.66;83.03
61026;BME280;46911;32.650;-16.902;2023-12-14T03:43:03;102185.25;;;16.57;82.98
61026;BME280;46911;32.650;-16.902;2023-12-14T03:45:08;102181.56;;;16.58;83.03
61026;BME280;46911;32.650;-16.902;2023-12-14T03:47:11;102174.47;;;16.57;82.36
61026;BME280;46911;32.650;-16.902;2023-12-14T03:49:12;102171.41;;;16.49;82.88
61026;BME280;46911;32.650;-16.902;2023-12-14T03:51:13;102180.69;;;16.57;82.03
61026;BME280;46911;32.650;-16.902;2023-12-14T03:53:14;102166.56;;;16.54;81.98
61026;BME280;46911;32.650;-16.902;2023-12-14T03:55:17;102171.44;;;16.62;81.81
61026;BME280;46911;32.650;-16.902;2023-12-14T03:57:20;102168.44;;;16.66;81.39
61026;BME280;46911;32.650;-16.902;2023-12-14T03:59:21;102170.59;;;16.61;81.47
61026;BME280;46911;32.650;-16.902;2023-12-14T04:01:22;102166.28;;;16.59;81.58
61026;BME280;46911;32.650;-16.902;2023-12-14T04:03:28;102161.19;;;16.67;80.96
61026;BME280;46911;32.650;-16.902;2023-12-14T04:05:31;102168.97;;;16.59;81.01
61026;BME280;46911;32.650;-16.902;2023-12-14T04:07:36;102162.38;;;16.63;80.89
61026;BME280;46911;32.650;-16.902;2023-12-14T04:09:44;102161.31;;;16.65;80.93
61026;BME280;46911;32.650;-16.902;2023-12-14T04:11:54;102140.72;;;16.64;80.01
61026;BME280;46911;32.650;-16.902;2023-12-14T04:13:55;102155.38;;;16.60;80.19
61026;BME280;46911;32.650;-16.902;2023-12-14T04:15:56;102157.84;;;16.63;80.30
61026;BME280;46911;32.650;-16.902;2023-12-14T04:18:00;102171.97;;;16.67;80.30
61026;BME280;46911;32.650;-16.902;2023-12-14T04:20:01;102155.50;;;16.59;79.87
61026;BME280;46911;32.650;-16.902;2023-12-14T04:22:05;102169.81;;;16.72;79.63
61026;BME280;46911;32.650;-16.902;2023-12-14T04:24:07;102164.09;;;16.77;79.79
61026;BME280;46911;32.650;-16.902;2023-12-14T04:26:09;102176.47;;;16.79;79.52
61026;BME280;46911;32.650;-16.902;2023-12-14T04:28:16;102171.88;;;16.81;79.60
61026;BME280;46911;32.650;-16.902;2023-12-14T04:30:22;102179.94;;;16.81;79.69
61026;BME280;46911;32.650;-16.902;2023-12-14T04:32:23;102180.56;;;16.85;79.37
61026;BME280;46911;32.650;-16.902;2023-12-14T04:34:26;102162.41;;;16.76;79.82
61026;BME280;46911;32.650;-16.902;2023-12-14T04:36:27;102163.13;;;16.65;80.51
61026;BME280;46911;32.650;-16.902;2023-12-14T04:38:28;102175.63;;;16.66;80.66
61026;BME280;46911;32.650;-16.902;2023-12-14T04:40:29;102182.22;;;16.62;80.66
61026;BME280;46911;32.650;-16.902;2023-12-14T04:42:30;102169.94;;;16.57;80.19
61026;BME280;46911;32.650;-16.902;2023-12-14T04:44:31;102177.47;;;16.52;80.89
61026;BME280;46911;32.650;-16.902;2023-12-14T04:46:34;102178.66;;;16.48;81.07
61026;BME280;46911;32.650;-16.902;2023-12-14T04:48:37;102167.75;;;16.50;81.18
61026;BME280;46911;32.650;-16.902;2023-12-14T04:50:38;102181.88;;;16.40;81.55
61026;BME280;46911;32.650;-16.902;2023-12-14T04:52:43;102161.50;;;16.36;81.38
61026;BME280;46911;32.650;-16.902;2023-12-14T04:54:44;102176.59;;;16.39;81.88
61026;BME280;46911;32.650;-16.902;2023-12-14T04:56:46;102177.03;;;16.46;81.77
61026;BME280;46911;32.650;-16.902;2023-12-14T04:58:47;102174.44;;;16.44;80.84
61026;BME280;46911;32.650;-16.902;2023-12-14T05:00:50;102170.69;;;16.47;80.54
61026;BME280;46911;32.650;-16.902;2023-12-14T05:02:53;102171.66;;;16.46;80.78
61026;BME280;46911;32.650;-16.902;2023-12-14T05:04:57;102165.41;;;16.45;80.10
61026;BME280;46911;32.650;-16.902;2023-12-14T05:07:00;102149.13;;;16.34;80.49
61026;BME280;46911;32.650;-16.902;2023-12-14T05:09:04;102165.94;;;16.37;80.57
61026;BME280;46911;32.650;-16.902;2023-12-14T05:11:06;102173.69;;;16.42;80.70
61026;BME280;46911;32.650;-16.902;2023-12-14T05:13:07;102176.72;;;16.37;81.29
61026;BME280;46911;32.650;-16.902;2023-12-14T05:15:12;102174.97;;;16.36;81.84
61026;BME280;46911;32.650;-16.902;2023-12-14T05:17:13;102167.78;;;16.37;82.27
61026;BME280;46911;32.650;-16.902;2023-12-14T05:19:14;102179.41;;;16.37;82.39
61026;BME280;46911;32.650;-16.902;2023-12-14T05:21:18;102168.31;;;16.29;83.07
61026;BME280;46911;32.650;-16.902;2023-12-14T05:23:19;102171.22;;;16.26;82.39
61026;BME280;46911;32.650;-16.902;2023-12-14T05:25:20;102172.28;;;16.36;80.64
61026;BME280;46911;32.650;-16.902;2023-12-14T05:27:24;102170.78;;;16.32;80.68
61026;BME280;46911;32.650;-16.902;2023-12-14T05:29:27;102167.34;;;16.30;81.02
61026;BME280;46911;32.650;-16.902;2023-12-14T05:31:28;102173.47;;;16.32;81.31
61026;BME280;46911;32.650;-16.902;2023-12-14T05:33:29;102166.16;;;16.34;80.14
61026;BME280;46911;32.650;-16.902;2023-12-14T05:35:31;102169.81;;;16.33;79.95
61026;BME280;46911;32.650;-16.902;2023-12-14T05:37:32;102160.66;;;16.23;80.66
61026;BME280;46911;32.650;-16.902;2023-12-14T05:39:35;102170.66;;;16.21;80.67
61026;BME280;46911;32.650;-16.902;2023-12-14T05:41:43;102165.16;;;16.10;80.57
61026;BME280;46911;32.650;-16.902;2023-12-14T05:43:47;102165.41;;;16.19;80.57
61026;BME280;46911;32.650;-16.902;2023-12-14T05:45:50;102173.25;;;16.22;80.65
61026;BME280;46911;32.650;-16.902;2023-12-14T05:47:51;102168.72;;;16.23;80.86
61026;BME280;46911;32.650;-16.902;2023-12-14T05:49:54;102171.22;;;16.26;80.73
61026;BME280;46911;32.650;-16.902;2023-12-14T05:51:57;102160.00;;;16.19;80.62
61026;BME280;46911;32.650;-16.902;2023-12-14T05:54:02;102173.47;;;16.19;81.23
61026;BME280;46911;32.650;-16.902;2023-12-14T05:56:03;102164.94;;;16.13;81.29
61026;BME280;46911;32.650;-16.902;2023-12-14T05:58:06;102163.63;;;16.05;81.90
61026;BME280;46911;32.650;-16.902;2023-12-14T06:00:08;102152.41;;;15.99;81.96
61026;BME280;46911;32.650;-16.902;2023-12-14T06:02:09;102171.81;;;16.04;81.99
61026;BME280;46911;32.650;-16.902;2023-12-14T06:04:10;102168.91;;;16.07;81.32
61026;BME280;46911;32.650;-16.902;2023-12-14T06:06:13;102172.16;;;16.12;81.39
61026;BME280;46911;32.650;-16.902;2023-12-14T06:08:19;102178.59;;;16.10;81.46
61026;BME280;46911;32.650;-16.902;2023-12-14T06:10:23;102172.81;;;16.16;80.63
61026;BME280;46911;32.650;-16.902;2023-12-14T06:12:24;102176.78;;;16.23;80.32
61026;BME280;46911;32.650;-16.902;2023-12-14T06:14:27;102152.69;;;16.21;79.41
61026;BME280;46911;32.650;-16.902;2023-12-14T06:16:28;102171.53;;;16.34;80.04
61026;BME280;46911;32.650;-16.902;2023-12-14T06:18:30;102155.50;;;16.33;79.84
61026;BME280;46911;32.650;-16.902;2023-12-14T06:20:31;102168.19;;;16.31;79.55
61026;BME280;46911;32.650;-16.902;2023-12-14T06:22:32;102160.66;;;16.36;78.61
61026;BME280;46911;32.650;-16.902;2023-12-14T06:24:33;102173.16;;;16.50;78.34
61026;BME280;46911;32.650;-16.902;2023-12-14T06:26:36;102182.66;;;16.43;78.86
61026;BME280;46911;32.650;-16.902;2023-12-14T06:28:41;102170.91;;;16.44;79.07
61026;BME280;46911;32.650;-16.902;2023-12-14T06:30:41;102168.19;;;16.31;79.62
61026;BME280;46911;32.650;-16.902;2023-12-14T06:32:42;102176.50;;;16.28;79.72
61026;BME280;46911;32.650;-16.902;2023-12-14T06:34:43;102178.84;;;16.32;79.66
61026;BME280;46911;32.650;-16.902;2023-12-14T06:36:47;102184.34;;;16.31;80.24
61026;BME280;46911;32.650;-16.902;2023-12-14T06:38:50;102177.66;;;16.36;79.99
61026;BME280;46911;32.650;-16.902;2023-12-14T06:40:54;102185.00;;;16.34;79.82
61026;BME280;46911;32.650;-16.902;2023-12-14T06:42:55;102200.19;;;16.35;80.27
61026;BME280;46911;32.650;-16.902;2023-12-14T06:44:56;102209.75;;;16.27;80.67
61026;BME280;46911;32.650;-16.902;2023-12-14T06:47:04;102190.59;;;16.18;81.05
61026;BME280;46911;32.650;-16.902;2023-12-14T06:49:05;102193.16;;;16.20;80.85
61026;BME280;46911;32.650;-16.902;2023-12-14T06:51:06;102195.97;;;16.31;80.95
61026;BME280;46911;32.650;-16.902;2023-12-14T06:53:09;102192.75;;;16.26;81.17
61026;BME280;46911;32.650;-16.902;2023-12-14T06:55:10;102201.13;;;16.21;81.61
61026;BME280;46911;32.650;-16.902;2023-12-14T06:57:11;102208.81;;;16.28;80.13
61026;BME280;46911;32.650;-16.902;2023-12-14T06:59:17;102214.00;;;16.44;78.68
61026;BME280;46911;32.650;-16.902;2023-12-14T07:01:18;102228.75;;;16.51;77.98
61026;BME280;46911;32.650;-16.902;2023-12-14T07:03:18;102229.59;;;16.38;78.48
61026;BME280;46911;32.650;-16.902;2023-12-14T07:05:19;102234.84;;;16.27;79.20
61026;BME280;46911;32.650;-16.902;2023-12-14T07:07:20;102226.88;;;16.26;78.07
61026;BME280;46911;32.650;-16.902;2023-12-14T07:09:21;102219.03;;;16.22;78.71
61026;BME280;46911;32.650;-16.902;2023-12-14T07:11:22;102236.28;;;16.33;77.71
61026;BME280;46911;32.650;-16.902;2023-12-14T07:13:25;102228.72;;;16.38;77.01
61026;BME280;46911;32.650;-16.902;2023-12-14T07:15:29;102216.34;;;16.35;76.99
61026;BME280;46911;32.650;-16.902;2023-12-14T07:17:30;102229.38;;;16.42;77.04
61026;BME280;46911;32.650;-16.902;2023-12-14T07:19:31;102224.44;;;16.48;76.60
61026;BME280;46911;32.650;-16.902;2023-12-14T07:21:32;102232.22;;;16.53;76.69
61026;BME280;46911;32.650;-16.902;2023-12-14T07:23:36;102223.25;;;16.52;76.81
61026;BME280;46911;32.650;-16.902;2023-12-14T07:25:39;102220.16;;;16.59;76.72
61026;BME280;46911;32.650;-16.902;2023-12-14T07:27:43;102229.41;;;16.54;77.69
61026;BME280;46911;32.650;-16.902;2023-12-14T07:29:49;102214.75;;;16.46;77.83
61026;BME280;46911;32.650;-16.902;2023-12-14T07:31:50;102234.81;;;16.54;77.91
61026;BME280;46911;32.650;-16.902;2023-12-14T07:33:53;102227.78;;;16.52;77.83
61026;BME280;46911;32.650;-16.902;2023-12-14T07:35:57;102228.09;;;16.34;78.07
61026;BME280;46911;32.650;-16.902;2023-12-14T07:38:01;102231.63;;;16.35;77.96
61026;BME280;46911;32.650;-16.902;2023-12-14T07:40:02;102244.16;;;16.49;77.88
61026;BME280;46911;32.650;-16.902;2023-12-14T07:42:04;102242.00;;;16.41;78.53
61026;BME280;46911;32.650;-16.902;2023-12-14T07:44:08;102236.72;;;16.39;78.95
61026;BME280;46911;32.650;-16.902;2023-12-14T07:46:09;102247.38;;;16.41;79.47
61026;BME280;46911;32.650;-16.902;2023-12-14T07:48:12;102248.13;;;16.43;79.23
61026;BME280;46911;32.650;-16.902;2023-12-14T07:50:16;102249.63;;;16.47;78.37
61026;BME280;46911;32.650;-16.902;2023-12-14T07:52:17;102248.38;;;16.53;77.39
61026;BME280;46911;32.650;-16.902;2023-12-14T07:54:18;102250.84;;;16.56;77.21
61026;BME280;46911;32.650;-16.902;2023-12-14T07:56:19;102260.13;;;16.65;77.17
61026;BME280;46911;32.650;-16.902;2023-12-14T07:58:20;102260.22;;;16.50;77.74
61026;BME280;46911;32.650;-16.902;2023-12-14T08:00:25;102258.59;;;16.48;78.41
61026;BME280;46911;32.650;-16.902;2023-12-14T08:02:26;102275.28;;;16.40;78.71
61026;BME280;46911;32.650;-16.902;2023-12-14T08:04:27;102266.44;;;16.38;78.36
61026;BME280;46911;32.650;-16.902;2023-12-14T08:06:28;102274.44;;;16.39;77.87
61026;BME280;46911;32.650;-16.902;2023-12-14T08:08:31;102261.03;;;16.25;78.25
61026;BME280;46911;32.650;-16.902;2023-12-14T08:10:32;102276.13;;;16.40;77.90
61026;BME280;46911;32.650;-16.902;2023-12-14T08:12:33;102281.22;;;16.45;77.31
61026;BME280;46911;32.650;-16.902;2023-12-14T08:14:35;102281.22;;;16.45;76.53
61026;BME280;46911;32.650;-16.902;2023-12-14T08:16:38;102282.41;;;16.54;74.77
61026;BME280;46911;32.650;-16.902;2023-12-14T08:18:42;102285.22;;;16.52;74.50
61026;BME280;46911;32.650;-16.902;2023-12-14T08:20:45;102280.94;;;16.63;73.77
61026;BME280;46911;32.650;-16.902;2023-12-14T08:22:46;102280.94;;;16.76;73.18
61026;BME280;46911;32.650;-16.902;2023-12-14T08:24:48;102293.03;;;16.83;72.79
61026;BME280;46911;32.650;-16.902;2023-12-14T08:26:49;102281.69;;;16.78;72.33
61026;BME280;46911;32.650;-16.902;2023-12-14T08:28:52;102285.16;;;16.80;72.50
61026;BME280;46911;32.650;-16.902;2023-12-14T08:30:57;102291.94;;;16.85;72.45
61026;BME280;46911;32.650;-16.902;2023-12-14T08:32:59;102288.28;;;16.86;72.22
61026;BME280;46911;32.650;-16.902;2023-12-14T08:35:03;102298.88;;;16.89;71.52
61026;BME280;46911;32.650;-16.902;2023-12-14T08:37:05;102286.78;;;16.95;71.34
61026;BME280;46911;32.650;-16.902;2023-12-14T08:39:06;102300.84;;;17.13;70.41
61026;BME280;46911;32.650;-16.902;2023-12-14T08:41:09;102294.91;;;17.08;70.57
61026;BME280;46911;32.650;-16.902;2023-12-14T08:43:14;102304.59;;;17.11;70.77
61026;BME280;46911;32.650;-16.902;2023-12-14T08:45:16;102314.09;;;17.16;70.38
61026;BME280;46911;32.650;-16.902;2023-12-14T08:47:20;102305.56;;;17.10;69.69
61026;BME280;46911;32.650;-16.902;2023-12-14T08:49:21;102324.97;;;17.15;69.04
61026;BME280;46911;32.650;-16.902;2023-12-14T08:51:23;102320.66;;;17.25;68.89
61026;BME280;46911;32.650;-16.902;2023-12-14T08:53:27;102330.81;;;17.21;69.17
61026;BME280;46911;32.650;-16.902;2023-12-14T08:55:29;102326.25;;;17.22;69.29
61026;BME280;46911;32.650;-16.902;2023-12-14T08:57:30;102330.47;;;17.26;68.96
61026;BME280;46911;32.650;-16.902;2023-12-14T08:59:33;102331.00;;;17.31;68.01
61026;BME280;46911;32.650;-16.902;2023-12-14T09:01:34;102320.97;;;17.20;68.55
61026;BME280;46911;32.650;-16.902;2023-12-14T09:03:35;102336.28;;;17.33;69.25
61026;BME280;46911;32.650;-16.902;2023-12-14T09:05:38;102342.34;;;17.36;68.85
61026;BME280;46911;32.650;-16.902;2023-12-14T09:07:43;102316.13;;;17.26;68.65
61026;BME280;46911;32.650;-16.902;2023-12-14T09:09:49;102338.34;;;17.42;68.57
61026;BME280;46911;32.650;-16.902;2023-12-14T09:11:50;102348.50;;;17.38;68.82
61026;BME280;46911;32.650;-16.902;2023-12-14T09:13:53;102347.06;;;17.46;68.16
61026;BME280;46911;32.650;-16.902;2023-12-14T09:15:54;102350.75;;;17.45;67.84
61026;BME280;46911;32.650;-16.902;2023-12-14T09:17:58;102348.47;;;17.51;67.23
61026;BME280;46911;32.650;-16.902;2023-12-14T09:20:02;102348.88;;;17.58;66.29
61026;BME280;46911;32.650;-16.902;2023-12-14T09:22:06;102355.25;;;17.57;66.99
61026;BME280;46911;32.650;-16.902;2023-12-14T09:24:10;102352.13;;;17.63;66.77
61026;BME280;46911;32.650;-16.902;2023-12-14T09:26:11;102362.25;;;17.60;67.04
61026;BME280;46911;32.650;-16.902;2023-12-14T09:28:12;102336.28;;;17.46;66.73
61026;BME280;46911;32.650;-16.902;2023-12-14T09:30:17;102366.38;;;17.65;67.33
61026;BME280;46911;32.650;-16.902;2023-12-14T09:32:18;102368.31;;;17.63;67.13
61026;BME280;46911;32.650;-16.902;2023-12-14T09:34:19;102383.19;;;17.82;66.70
61026;BME280;46911;32.650;-16.902;2023-12-14T09:36:23;102385.66;;;17.85;67.22
61026;BME280;46911;32.650;-16.902;2023-12-14T09:38:26;102380.16;;;17.99;67.20
61026;BME280;46911;32.650;-16.902;2023-12-14T09:40:32;102391.03;;;18.11;67.38
61026;BME280;46911;32.650;-16.902;2023-12-14T09:42:37;102391.94;;;18.22;67.24
61026;BME280;46911;32.650;-16.902;2023-12-14T09:44:47;102393.75;;;18.35;67.11
61026;BME280;46911;32.650;-16.902;2023-12-14T09:46:49;102387.84;;;18.54;67.15
61026;BME280;46911;32.650;-16.902;2023-12-14T09:48:51;102386.75;;;18.56;67.02
61026;BME280;46911;32.650;-16.902;2023-12-14T09:50:56;102400.59;;;18.76;66.63
61026;BME280;46911;32.650;-16.902;2023-12-14T09:53:01;102392.19;;;18.92;66.30
61026;BME280;46911;32.650;-16.902;2023-12-14T09:55:05;102393.69;;;19.07;64.96
61026;BME280;46911;32.650;-16.902;2023-12-14T09:57:08;102405.41;;;19.19;64.84
61026;BME280;46911;32.650;-16.902;2023-12-14T09:59:09;102410.22;;;19.27;64.53
61026;BME280;46911;32.650;-16.902;2023-12-14T10:03:26;102400.50;;;19.24;64.25
61026;BME280;46911;32.650;-16.902;2023-12-14T10:05:28;102402.50;;;19.34;64.03
61026;BME280;46911;32.650;-16.902;2023-12-14T10:07:31;102409.00;;;19.43;64.42
61026;BME280;46911;32.650;-16.902;2023-12-14T10:09:37;102404.34;;;19.56;64.36
61026;BME280;46911;32.650;-16.902;2023-12-14T10:11:41;102406.31;;;20.22;63.02
61026;BME280;46911;32.650;-16.902;2023-12-14T10:13:45;102404.31;;;20.35;61.82
61026;BME280;46911;32.650;-16.902;2023-12-14T10:15:49;102404.69;;;20.31;60.87
61026;BME280;46911;32.650;-16.902;2023-12-14T10:17:53;102411.59;;;21.00;59.49
61026;BME280;46911;32.650;-16.902;2023-12-14T10:19:55;102414.78;;;21.78;57.91
61026;BME280;46911;32.650;-16.902;2023-12-14T10:21:56;102427.47;;;22.69;54.70
61026;BME280;46911;32.650;-16.902;2023-12-14T10:24:00;102417.38;;;23.38;52.36
61026;BME280;46911;32.650;-16.902;2023-12-14T10:26:01;102419.91;;;23.59;51.09
61026;BME280;46911;32.650;-16.902;2023-12-14T10:28:07;102423.13;;;23.35;51.15